Time;durP1;ratioP1;P1;durP2;ratioP2;P2;SDS_P1;SDS_P2;PMS_P1;PMS_P2;Temp;Humidity;BMP_temperature;BMP_pressure;BME280_temperature;BME280_humidity;BME280_pressure;Samples;Min_cycle;Max_cycle;Signal;HPM_P1;HPM_P2
2021/09/01 00:00:41;;;;;;;5.03;3.70;;;;;;;;;;6126360;23;20405;-67
2021/09/01 00:03:06;;;;;;;5.57;4.20;;;;;;;;;;6125455;23;20053;-68
2021/09/01 00:05:32;;;;;;;7.13;4.47;;;;;;;;;;6125476;23;20431;-73
2021/09/01 00:07:58;;;;;;;6.53;4.35;;;;;;;;;;6125662;23;20013;-70
2021/09/01 00:10:24;;;;;;;6.10;4.07;;;;;;;;;;6125712;23;19998;-71
2021/09/01 00:12:49;;;;;;;6.63;3.92;;;;;;;;;;6125946;23;20081;-69
2021/09/01 00:15:16;;;;;;;7.03;4.45;;;;;;;;;;6125462;23;20006;-68
2021/09/01 00:17:42;;;;;;;6.40;4.65;;;;;;;;;;6125970;23;20016;-70
2021/09/01 00:20:10;;;;;;;7.93;4.35;;;;;;;;;;6125184;23;20005;-68
2021/09/01 00:22:36;;;;;;;6.32;3.80;;;;;;;;;;6126085;23;20077;-70
2021/09/01 00:25:02;;;;;;;7.40;3.80;;;;;;;;;;6125303;23;20040;-72
2021/09/01 00:27:28;;;;;;;11.60;4.00;;;;;;;;;;6125697;23;20327;-71
2021/09/01 00:29:53;;;;;;;6.10;3.95;;;;;;;;;;6125829;23;20016;-70
2021/09/01 00:32:19;;;;;;;6.97;4.40;;;;;;;;;;6125327;23;20078;-74
2021/09/01 00:34:44;;;;;;;6.18;3.55;;;;;;;;;;6125428;23;20106;-69
2021/09/01 00:37:09;;;;;;;7.07;4.05;;;;;;;;;;6125515;23;20061;-70
2021/09/01 00:39:35;;;;;;;6.35;4.13;;;;;;;;;;6125601;23;20006;-72
2021/09/01 00:42:05;;;;;;;5.57;4.00;;;;;;;;;;6125499;23;20407;-70
2021/09/01 00:44:31;;;;;;;6.40;4.72;;;;;;;;;;6124995;23;19997;-73
2021/09/01 00:46:57;;;;;;;9.60;3.83;;;;;;;;;;6125356;23;20077;-70
2021/09/01 00:49:25;;;;;;;7.40;4.10;;;;;;;;;;6125948;23;20030;-68
2021/09/01 00:51:51;;;;;;;5.85;4.13;;;;;;;;;;6125634;23;20102;-70
2021/09/01 00:54:18;;;;;;;8.43;4.55;;;;;;;;;;6124890;23;19997;-71
2021/09/01 00:57:04;;;;;;;4.50;3.90;;;;;;;;;;6125610;23;20000;-67
2021/09/01 00:59:31;;;;;;;7.97;4.60;;;;;;;;;;6125498;23;20424;-68
2021/09/01 01:01:57;;;;;;;5.55;4.07;;;;;;;;;;6124979;23;19998;-70
2021/09/01 01:04:26;;;;;;;8.65;4.60;;;;;;;;;;6125125;23;20474;-71
2021/09/01 01:06:53;;;;;;;5.85;4.28;;;;;;;;;;6125388;23;20332;-71
2021/09/01 01:09:20;;;;;;;7.07;4.57;;;;;;;;;;6125150;23;19998;-71
2021/09/01 01:11:59;;;;;;;9.20;4.85;;;;;;;;;;6125582;23;20002;-69
2021/09/01 01:14:25;;;;;;;12.88;4.68;;;;;;;;;;6124746;23;20420;-68
2021/09/01 01:16:51;;;;;;;5.90;4.20;;;;;;;;;;6125507;23;20006;-70
2021/09/01 01:19:19;;;;;;;8.35;4.90;;;;;;;;;;6099238;23;20002;-71
2021/09/01 01:21:45;;;;;;;6.47;4.50;;;;;;;;;;6093738;23;20078;-71
2021/09/01 01:24:10;;;;;;;8.13;4.90;;;;;;;;;;6095709;23;20208;-72
2021/09/01 01:26:36;;;;;;;6.50;4.65;;;;;;;;;;6125547;23;20004;-71
2021/09/01 01:29:03;;;;;;;6.95;4.55;;;;;;;;;;6124749;23;20042;-72
2021/09/01 01:31:30;;;;;;;7.18;4.45;;;;;;;;;;6125000;23;20002;-69
2021/09/01 01:33:57;;;;;;;5.63;4.22;;;;;;;;;;6124860;23;20006;-69
2021/09/01 01:36:24;;;;;;;5.63;4.50;;;;;;;;;;6124749;23;19994;-67
2021/09/01 01:38:50;;;;;;;5.20;4.25;;;;;;;;;;6125085;23;20001;-70
2021/09/01 01:41:15;;;;;;;8.68;4.43;;;;;;;;;;6124818;23;20443;-69
2021/09/01 01:43:43;;;;;;;7.82;5.75;;;;;;;;;;6124786;23;20038;-69
2021/09/01 01:46:08;;;;;;;7.22;4.25;;;;;;;;;;6099036;23;20427;-71
2021/09/01 01:48:34;;;;;;;12.88;4.70;;;;;;;;;;6125037;23;20017;-71
2021/09/01 01:51:01;;;;;;;11.68;4.38;;;;;;;;;;6124970;23;20026;-71
2021/09/01 01:53:27;;;;;;;7.13;4.50;;;;;;;;;;6125038;23;20006;-70
2021/09/01 01:55:52;;;;;;;8.25;4.65;;;;;;;;;;6124459;23;20375;-70
2021/09/01 01:58:18;;;;;;;8.15;4.28;;;;;;;;;;6129103;23;20084;-70
2021/09/01 02:00:44;;;;;;;6.95;4.10;;;;;;;;;;6132003;23;20005;-69
2021/09/01 02:03:10;;;;;;;7.38;3.60;;;;;;;;;;6105067;23;20014;-68
2021/09/01 02:05:36;;;;;;;6.70;4.35;;;;;;;;;;6127685;23;20674;-71
2021/09/01 02:08:02;;;;;;;9.10;4.95;;;;;;;;;;6124556;23;20017;-71
2021/09/01 02:10:27;;;;;;;5.95;4.22;;;;;;;;;;6124964;23;20338;-72
2021/09/01 02:12:54;;;;;;;6.30;4.78;;;;;;;;;;6124726;23;20044;-69
2021/09/01 02:15:20;;;;;;;5.78;4.13;;;;;;;;;;6123867;23;20029;-72
2021/09/01 02:17:45;;;;;;;5.95;3.92;;;;;;;;;;6125365;23;19998;-72
2021/09/01 02:20:12;;;;;;;5.53;3.90;;;;;;;;;;6124664;23;20109;-68
2021/09/01 02:22:39;;;;;;;5.75;4.40;;;;;;;;;;6098964;23;20002;-71
2021/09/01 02:25:07;;;;;;;9.07;4.53;;;;;;;;;;6124379;23;19998;-69
2021/09/01 02:27:33;;;;;;;5.78;4.05;;;;;;;;;;6124582;23;20010;-69
2021/09/01 02:29:59;;;;;;;13.52;4.10;;;;;;;;;;6124757;23;19998;-69
2021/09/01 02:32:25;;;;;;;7.50;4.25;;;;;;;;;;6098657;23;19998;-71
2021/09/01 02:34:50;;;;;;;5.97;4.38;;;;;;;;;;6124460;23;20029;-72
2021/09/01 02:37:15;;;;;;;6.47;4.78;;;;;;;;;;6124644;23;20077;-70
2021/09/01 02:39:41;;;;;;;8.00;4.93;;;;;;;;;;6124768;23;20466;-71
2021/09/01 02:42:06;;;;;;;7.47;4.85;;;;;;;;;;6124805;23;20327;-71
2021/09/01 02:44:32;;;;;;;7.63;4.85;;;;;;;;;;6124077;23;20379;-70
2021/09/01 02:46:57;;;;;;;7.40;4.53;;;;;;;;;;6124772;23;19994;-68
2021/09/01 02:49:23;;;;;;;7.10;4.57;;;;;;;;;;6124816;23;20005;-69
2021/09/01 02:51:48;;;;;;;6.57;4.45;;;;;;;;;;6098830;23;20005;-68
2021/09/01 02:54:13;;;;;;;6.75;4.45;;;;;;;;;;6124294;23;20009;-71
2021/09/01 02:56:39;;;;;;;7.57;4.95;;;;;;;;;;6124734;23;20002;-69
2021/09/01 02:59:04;;;;;;;7.05;4.13;;;;;;;;;;6124258;23;20490;-69
2021/09/01 03:01:29;;;;;;;8.65;4.70;;;;;;;;;;6124615;23;20336;-70
2021/09/01 03:03:55;;;;;;;7.90;5.00;;;;;;;;;;6124676;23;20077;-69
2021/09/01 03:06:20;;;;;;;6.28;4.78;;;;;;;;;;6124989;23;19998;-71
2021/09/01 03:08:45;;;;;;;6.10;4.50;;;;;;;;;;6126216;23;20012;-71
2021/09/01 03:11:11;;;;;;;10.20;4.93;;;;;;;;;;6126368;23;20507;-73
2021/09/01 03:13:36;;;;;;;7.82;4.85;;;;;;;;;;6126031;23;20299;-72
2021/09/01 03:16:02;;;;;;;5.93;4.70;;;;;;;;;;6100206;23;19998;-70
2021/09/01 03:18:27;;;;;;;13.48;5.50;;;;;;;;;;6126698;23;19998;-71
2021/09/01 03:20:52;;;;;;;9.85;4.75;;;;;;;;;;6126480;23;19998;-72
2021/09/01 03:23:18;;;;;;;6.70;4.43;;;;;;;;;;6126084;23;20002;-69
2021/09/01 03:25:43;;;;;;;6.75;4.57;;;;;;;;;;6126232;23;20085;-72
2021/09/01 03:28:09;;;;;;;7.55;4.97;;;;;;;;;;6125862;23;20013;-70
2021/09/01 03:30:34;;;;;;;9.25;4.88;;;;;;;;;;6126172;23;20006;-72
2021/09/01 03:32:59;;;;;;;10.57;5.18;;;;;;;;;;6126261;23;20034;-70
2021/09/01 03:35:25;;;;;;;9.45;4.97;;;;;;;;;;6125957;23;20014;-69
2021/09/01 03:37:50;;;;;;;7.30;4.93;;;;;;;;;;6126240;23;20378;-70
2021/09/01 03:40:15;;;;;;;8.43;5.05;;;;;;;;;;6126007;23;20005;-69
2021/09/01 03:42:41;;;;;;;8.38;5.70;;;;;;;;;;6126292;23;20021;-69
2021/09/01 03:45:07;;;;;;;8.98;5.70;;;;;;;;;;6125553;23;20445;-69
2021/09/01 03:47:32;;;;;;;8.10;5.38;;;;;;;;;;6126217;23;20018;-70
2021/09/01 03:49:58;;;;;;;11.68;5.45;;;;;;;;;;6126239;23;20084;-72
2021/09/01 03:52:23;;;;;;;9.13;5.68;;;;;;;;;;6126041;23;20048;-70
2021/09/01 03:54:48;;;;;;;9.85;5.38;;;;;;;;;;6099792;23;20002;-70
2021/09/01 03:57:14;;;;;;;6.88;4.97;;;;;;;;;;6125834;23;20008;-72
2021/09/01 03:59:39;;;;;;;8.57;5.25;;;;;;;;;;6125948;23;20317;-71
2021/09/01 04:02:05;;;;;;;7.35;5.47;;;;;;;;;;6125304;23;20081;-69
2021/09/01 04:04:31;;;;;;;9.80;5.32;;;;;;;;;;6126231;23;20025;-70
2021/09/01 04:06:57;;;;;;;8.07;5.47;;;;;;;;;;6125776;23;20379;-71
2021/09/01 04:09:22;;;;;;;9.63;5.75;;;;;;;;;;6125916;23;20081;-74
2021/09/01 04:11:47;;;;;;;9.73;5.68;;;;;;;;;;6126098;23;20053;-73
2021/09/01 04:14:13;;;;;;;8.85;6.07;;;;;;;;;;6125185;23;20363;-71
2021/09/01 04:16:38;;;;;;;9.07;6.25;;;;;;;;;;6125458;23;19998;-71
2021/09/01 04:19:03;;;;;;;8.57;5.78;;;;;;;;;;6125395;23;20002;-71
2021/09/01 04:21:29;;;;;;;7.38;5.65;;;;;;;;;;6125814;23;20316;-71
2021/09/01 04:23:54;;;;;;;9.05;5.97;;;;;;;;;;6125597;23;20049;-72
2021/09/01 04:26:19;;;;;;;9.68;5.63;;;;;;;;;;6125221;23;19998;-70
2021/09/01 04:28:45;;;;;;;10.77;6.10;;;;;;;;;;6125706;23;20371;-72
2021/09/01 04:31:10;;;;;;;13.90;6.25;;;;;;;;;;6125465;23;20025;-71
2021/09/01 04:33:36;;;;;;;7.20;5.25;;;;;;;;;;6125472;23;20013;-69
2021/09/01 04:36:01;;;;;;;10.50;6.35;;;;;;;;;;6125566;23;19998;-70
2021/09/01 04:38:26;;;;;;;10.65;6.78;;;;;;;;;;6125381;23;20419;-70
2021/09/01 04:40:52;;;;;;;11.20;6.10;;;;;;;;;;6125784;23;20008;-71
2021/09/01 04:43:17;;;;;;;9.20;5.45;;;;;;;;;;6125327;23;19998;-71
2021/09/01 04:45:42;;;;;;;8.93;6.28;;;;;;;;;;6125090;23;20458;-72
2021/09/01 04:48:08;;;;;;;9.27;5.60;;;;;;;;;;6125200;23;20010;-70
2021/09/01 04:50:34;;;;;;;10.65;6.03;;;;;;;;;;6125585;23;20006;-69
2021/09/01 04:52:59;;;;;;;8.48;5.43;;;;;;;;;;6125478;23;20427;-72
2021/09/01 04:55:24;;;;;;;7.43;5.15;;;;;;;;;;6124949;23;20005;-74
2021/09/01 04:57:50;;;;;;;7.90;5.00;;;;;;;;;;6125678;23;19998;-70
2021/09/01 05:00:15;;;;;;;9.90;5.72;;;;;;;;;;6125008;23;20371;-70
2021/09/01 05:02:41;;;;;;;8.25;5.85;;;;;;;;;;6125099;23;20467;-71
2021/09/01 05:05:07;;;;;;;16.63;6.15;;;;;;;;;;6124477;23;20006;-73
2021/09/01 05:07:32;;;;;;;10.55;6.20;;;;;;;;;;6125157;23;20010;-71
2021/09/01 05:09:58;;;;;;;10.85;5.63;;;;;;;;;;6125222;23;20133;-71
2021/09/01 05:12:26;;;;;;;10.98;6.00;;;;;;;;;;6125048;23;19998;-70
2021/09/01 05:14:52;;;;;;;9.00;6.43;;;;;;;;;;6124728;23;20097;-72
2021/09/01 05:17:18;;;;;;;10.38;5.80;;;;;;;;;;6075372;23;20030;-70
2021/09/01 05:19:43;;;;;;;12.13;5.85;;;;;;;;;;6125454;23;20368;-72
2021/09/01 05:22:12;;;;;;;9.95;5.72;;;;;;;;;;6124950;23;19994;-68
2021/09/01 05:24:45;;;;;;;18.20;5.78;;;;;;;;;;6124758;23;20052;-72
2021/09/01 05:27:17;;;;;;;17.80;5.32;;;;;;;;;;6125336;23;20320;-71
2021/09/01 05:29:44;;;;;;;9.77;4.97;;;;;;;;;;6125521;23;20002;-69
2021/09/01 05:32:17;;;;;;;11.95;4.90;;;;;;;;;;6099069;23;20008;-67
2021/09/01 05:34:42;;;;;;;11.95;5.47;;;;;;;;;;6097710;23;20417;-69
2021/09/01 05:37:09;;;;;;;15.13;5.22;;;;;;;;;;6125057;23;20030;-73
2021/09/01 05:39:35;;;;;;;11.55;4.93;;;;;;;;;;6124900;23;20006;-70
2021/09/01 05:42:00;;;;;;;8.73;5.32;;;;;;;;;;6125123;23;20049;-69
2021/09/01 05:44:26;;;;;;;6.25;4.50;;;;;;;;;;6123859;23;20013;-73
2021/09/01 05:46:52;;;;;;;12.60;4.90;;;;;;;;;;6125267;23;19998;-69
2021/09/01 05:49:20;;;;;;;8.55;4.80;;;;;;;;;;6124648;23;19997;-76
2021/09/01 05:51:45;;;;;;;10.75;5.25;;;;;;;;;;6125084;23;20427;-71
2021/09/01 05:54:10;;;;;;;7.03;5.07;;;;;;;;;;6098081;23;20002;-71
2021/09/01 05:56:37;;;;;;;9.23;4.72;;;;;;;;;;6124810;23;20010;-68
2021/09/01 05:59:07;;;;;;;9.00;5.20;;;;;;;;;;6124840;23;20002;-69
2021/09/01 06:01:36;;;;;;;10.30;5.45;;;;;;;;;;6093475;23;20022;-70
2021/09/01 06:04:04;;;;;;;7.47;5.47;;;;;;;;;;6123387;23;20042;-76
2021/09/01 06:06:30;;;;;;;11.35;5.40;;;;;;;;;;6121093;23;20339;-73
2021/09/01 06:08:59;;;;;;;13.00;5.20;;;;;;;;;;6124081;23;20006;-70
2021/09/01 06:11:25;;;;;;;9.82;5.07;;;;;;;;;;6124436;23;19994;-73
2021/09/01 06:13:51;;;;;;;7.72;5.10;;;;;;;;;;6124244;23;20323;-70
2021/09/01 06:16:16;;;;;;;10.48;5.30;;;;;;;;;;6123772;23;20002;-69
2021/09/01 06:18:41;;;;;;;7.60;5.68;;;;;;;;;;6124781;23;20375;-70
2021/09/01 06:21:07;;;;;;;10.27;4.80;;;;;;;;;;6098643;23;20005;-70
2021/09/01 06:23:34;;;;;;;11.30;5.55;;;;;;;;;;6124482;23;20081;-71
2021/09/01 06:25:59;;;;;;;9.38;5.40;;;;;;;;;;6123914;23;20002;-69
2021/09/01 06:28:24;;;;;;;8.23;4.63;;;;;;;;;;6123920;23;20017;-68
2021/09/01 06:30:50;;;;;;;8.88;5.00;;;;;;;;;;6124960;23;19998;-68
2021/09/01 06:33:15;;;;;;;7.30;4.70;;;;;;;;;;6124331;23;20383;-69
2021/09/01 06:35:41;;;;;;;9.82;4.72;;;;;;;;;;6124184;23;20009;-68
2021/09/01 06:38:07;;;;;;;6.68;4.30;;;;;;;;;;6124286;23;20070;-67
2021/09/01 06:40:33;;;;;;;8.98;4.78;;;;;;;;;;6124629;23;19998;-68
2021/09/01 06:42:58;;;;;;;8.43;4.50;;;;;;;;;;6099776;23;20338;-68
2021/09/01 06:45:24;;;;;;;8.93;4.97;;;;;;;;;;6126212;23;20442;-69
2021/09/01 06:47:51;;;;;;;7.93;5.03;;;;;;;;;;6126456;23;20009;-69
2021/09/01 06:50:17;;;;;;;7.72;4.97;;;;;;;;;;6126220;23;20002;-69
2021/09/01 06:52:43;;;;;;;11.25;4.68;;;;;;;;;;6131145;23;20309;-70
2021/09/01 06:55:09;;;;;;;11.38;4.50;;;;;;;;;;6130891;23;20002;-67
2021/09/01 06:57:35;;;;;;;12.13;4.72;;;;;;;;;;6131423;23;20006;-67
2021/09/01 07:00:02;;;;;;;10.73;5.07;;;;;;;;;;6127183;23;20033;-67
2021/09/01 07:02:30;;;;;;;11.80;4.60;;;;;;;;;;6126558;23;20328;-67
2021/09/01 07:04:56;;;;;;;5.87;3.70;;;;;;;;;;6125961;23;20335;-68
2021/09/01 07:07:21;;;;;;;9.65;4.97;;;;;;;;;;6122551;23;20255;-68
2021/09/01 07:09:46;;;;;;;11.32;4.32;;;;;;;;;;6125573;23;20077;-68
2021/09/01 07:12:12;;;;;;;6.55;4.38;;;;;;;;;;6125596;23;20001;-68
2021/09/01 07:14:37;;;;;;;11.32;4.60;;;;;;;;;;6125408;23;20268;-70
2021/09/01 07:17:03;;;;;;;9.65;4.20;;;;;;;;;;6125505;23;20001;-69
2021/09/01 07:19:28;;;;;;;8.88;4.05;;;;;;;;;;6125672;23;20001;-70
2021/09/01 07:21:53;;;;;;;9.73;4.10;;;;;;;;;;6125088;23;20448;-68
2021/09/01 07:24:19;;;;;;;10.20;4.20;;;;;;;;;;6124493;23;20458;-68
2021/09/01 07:26:44;;;;;;;12.88;3.83;;;;;;;;;;6125696;23;20005;-73
2021/09/01 07:29:09;;;;;;;10.77;4.07;;;;;;;;;;6125840;23;20338;-77
2021/09/01 07:31:35;;;;;;;10.82;4.28;;;;;;;;;;6126466;23;19998;-74
2021/09/01 07:34:00;;;;;;;7.45;4.30;;;;;;;;;;6124726;23;20008;-69
2021/09/01 07:36:26;;;;;;;7.18;3.65;;;;;;;;;;6125433;23;19994;-70
2021/09/01 07:38:51;;;;;;;7.75;4.38;;;;;;;;;;6125228;23;20104;-71
2021/09/01 07:41:16;;;;;;;7.20;4.20;;;;;;;;;;6124413;23;19998;-73
2021/09/01 07:43:42;;;;;;;9.77;4.18;;;;;;;;;;6125588;23;20034;-74
2021/09/01 07:46:08;;;;;;;9.90;3.85;;;;;;;;;;6125625;23;20025;-71
2021/09/01 07:48:34;;;;;;;11.07;4.10;;;;;;;;;;6125491;23;20013;-73
2021/09/01 07:50:59;;;;;;;10.15;4.00;;;;;;;;;;6125472;23;20005;-71
2021/09/01 07:53:25;;;;;;;19.85;4.25;;;;;;;;;;6125104;23;20017;-70
2021/09/01 07:55:50;;;;;;;6.65;4.13;;;;;;;;;;6125063;23;20013;-69
2021/09/01 07:58:15;;;;;;;8.60;3.97;;;;;;;;;;6125552;23;20001;-68
2021/09/01 08:00:41;;;;;;;6.25;3.78;;;;;;;;;;6124981;23;19997;-72
2021/09/01 08:03:07;;;;;;;7.32;3.90;;;;;;;;;;6124495;23;20026;-68
2021/09/01 08:05:32;;;;;;;9.95;3.80;;;;;;;;;;6123126;23;19994;-72
2021/09/01 08:07:58;;;;;;;7.88;3.83;;;;;;;;;;6125572;23;20377;-72
2021/09/01 08:10:23;;;;;;;19.20;4.60;;;;;;;;;;6125384;23;20072;-71
2021/09/01 08:12:48;;;;;;;5.38;3.35;;;;;;;;;;6124404;23;19998;-69
2021/09/01 08:15:14;;;;;;;9.05;3.97;;;;;;;;;;6124026;23;20002;-73
2021/09/01 08:17:39;;;;;;;9.10;3.92;;;;;;;;;;6099045;23;20002;-74
2021/09/01 08:20:05;;;;;;;6.78;4.10;;;;;;;;;;6126392;23;20002;-73
2021/09/01 08:22:31;;;;;;;9.00;3.50;;;;;;;;;;6124873;23;20077;-73
2021/09/01 08:24:56;;;;;;;14.43;3.58;;;;;;;;;;6099704;23;20055;-73
2021/09/01 08:27:21;;;;;;;6.07;3.40;;;;;;;;;;6125221;23;20020;-75
2021/09/01 08:29:48;;;;;;;4.78;3.90;;;;;;;;;;6125812;23;20008;-72
2021/09/01 08:32:14;;;;;;;6.65;3.88;;;;;;;;;;6125591;23;20033;-71
2021/09/01 08:34:39;;;;;;;7.13;3.53;;;;;;;;;;6099336;23;20001;-76
2021/09/01 08:37:05;;;;;;;14.25;3.63;;;;;;;;;;6125284;23;20005;-72
2021/09/01 08:39:30;;;;;;;9.68;4.28;;;;;;;;;;6125372;23;19990;-71
2021/09/01 08:41:56;;;;;;;8.25;3.45;;;;;;;;;;6101565;23;20001;-79
2021/09/01 08:44:22;;;;;;;7.57;3.80;;;;;;;;;;6099562;23;20088;-74
2021/09/01 08:46:51;;;;;;;10.02;4.20;;;;;;;;;;6126365;23;19998;-76
2021/09/01 08:49:19;;;;;;;7.82;4.28;;;;;;;;;;6125357;23;20009;-74
2021/09/01 08:51:45;;;;;;;13.40;4.33;;;;;;;;;;6126468;23;20030;-74
2021/09/01 08:54:11;;;;;;;5.80;4.05;;;;;;;;;;6125540;23;20216;-74
2021/09/01 08:56:37;;;;;;;8.30;4.03;;;;;;;;;;6125493;23;20018;-72
2021/09/01 08:59:02;;;;;;;7.07;3.65;;;;;;;;;;6124680;23;20041;-72
2021/09/01 09:01:47;;;;;;;10.98;3.70;;;;;;;;;;6126287;23;20005;-76
2021/09/01 09:04:18;;;;;;;7.25;3.55;;;;;;;;;;6123274;23;20089;-74
2021/09/01 09:06:46;;;;;;;6.32;3.65;;;;;;;;;;6124764;23;19998;-72
2021/09/01 09:09:12;;;;;;;5.85;3.95;;;;;;;;;;6124830;23;20037;-75
2021/09/01 09:11:38;;;;;;;6.13;3.50;;;;;;;;;;6126128;23;20010;-74
2021/09/01 09:14:17;;;;;;;5.30;3.30;;;;;;;;;;6098356;23;20437;-76
2021/09/01 09:16:43;;;;;;;6.22;3.67;;;;;;;;;;6095983;23;20005;-75
2021/09/01 09:19:09;;;;;;;4.97;3.45;;;;;;;;;;6099029;23;20064;-70
2021/09/01 09:21:34;;;;;;;12.40;3.85;;;;;;;;;;6123893;23;19998;-73
2021/09/01 09:24:16;;;;;;;9.35;3.35;;;;;;;;;;6124346;23;20012;-73
2021/09/01 09:26:43;;;;;;;7.85;3.85;;;;;;;;;;6125107;23;20455;-74
2021/09/01 09:29:12;;;;;;;11.93;3.70;;;;;;;;;;6099748;23;20012;-74
2021/09/01 09:31:38;;;;;;;15.18;4.43;;;;;;;;;;6125309;23;20025;-77
2021/09/01 09:34:05;;;;;;;7.60;3.90;;;;;;;;;;6093289;23;19994;-74
2021/09/01 09:36:31;;;;;;;8.77;3.17;;;;;;;;;;6121552;23;20362;-74
2021/09/01 09:38:56;;;;;;;8.60;3.40;;;;;;;;;;6125042;23;20088;-74
2021/09/01 09:41:24;;;;;;;9.68;3.17;;;;;;;;;;6124468;23;20077;-72
2021/09/01 09:43:51;;;;;;;6.88;2.90;;;;;;;;;;6127571;23;20010;-74
2021/09/01 09:46:16;;;;;;;6.60;3.33;;;;;;;;;;6128697;23;20069;-73
2021/09/01 09:48:44;;;;;;;9.27;3.85;;;;;;;;;;6125284;23;20043;-72
2021/09/01 09:51:11;;;;;;;7.15;3.88;;;;;;;;;;6099257;23;20443;-73
2021/09/01 09:53:41;;;;;;;6.78;3.40;;;;;;;;;;6099366;23;20002;-74
2021/09/01 09:56:11;;;;;;;6.28;3.25;;;;;;;;;;6124584;23;20443;-75
2021/09/01 09:58:38;;;;;;;9.90;3.80;;;;;;;;;;6125427;23;20557;-70
2021/09/01 10:01:07;;;;;;;8.15;3.83;;;;;;;;;;6122602;23;19998;-75
2021/09/01 10:03:33;;;;;;;7.85;3.70;;;;;;;;;;6123623;23;20014;-75
2021/09/01 10:06:00;;;;;;;8.18;3.83;;;;;;;;;;6124123;23;20041;-74
2021/09/01 10:08:26;;;;;;;13.15;3.45;;;;;;;;;;6098193;23;20085;-75
2021/09/01 10:10:52;;;;;;;11.25;3.83;;;;;;;;;;6125120;23;20040;-75
2021/09/01 10:13:18;;;;;;;6.15;3.17;;;;;;;;;;6124498;23;19998;-76
2021/09/01 10:15:43;;;;;;;6.45;3.38;;;;;;;;;;6124579;23;20030;-75
2021/09/01 10:18:09;;;;;;;7.65;3.42;;;;;;;;;;6125366;23;20305;-75
2021/09/01 10:20:41;;;;;;;3.65;2.78;;;;;;;;;;6126722;23;20006;-74
2021/09/01 10:23:07;;;;;;;7.93;3.38;;;;;;;;;;6126757;23;19994;-75
2021/09/01 10:25:39;;;;;;;8.40;3.20;;;;;;;;;;6126494;23;20328;-75
2021/09/01 10:28:23;;;;;;;4.82;2.88;;;;;;;;;;6126384;23;20012;-74
2021/09/01 10:31:07;;;;;;;10.40;3.60;;;;;;;;;;6126656;23;20012;-74
2021/09/01 10:33:36;;;;;;;4.68;3.03;;;;;;;;;;6126128;23;19998;-74
2021/09/01 10:36:20;;;;;;;10.48;3.58;;;;;;;;;;6100412;23;20005;-75
2021/09/01 10:38:45;;;;;;;4.30;2.85;;;;;;;;;;6127000;23;20025;-75
2021/09/01 10:41:11;;;;;;;12.23;3.80;;;;;;;;;;6126375;23;20005;-78
2021/09/01 10:43:37;;;;;;;7.43;3.83;;;;;;;;;;6122682;23;20002;-79
2021/09/01 10:46:02;;;;;;;6.50;3.05;;;;;;;;;;6076099;23;20335;-76
2021/09/01 10:48:28;;;;;;;5.30;3.03;;;;;;;;;;6126075;23;20013;-75
2021/09/01 10:50:53;;;;;;;6.60;2.42;;;;;;;;;;6076260;23;19994;-74
2021/09/01 10:53:24;;;;;;;6.07;2.60;;;;;;;;;;6126257;23;19994;-73
2021/09/01 10:55:52;;;;;;;15.70;3.47;;;;;;;;;;6093820;23;20030;-74
2021/09/01 10:58:19;;;;;;;4.85;2.63;;;;;;;;;;6119729;23;20002;-74
2021/09/01 11:00:45;;;;;;;3.17;2.40;;;;;;;;;;6100407;23;20007;-73
2021/09/01 11:03:10;;;;;;;7.00;2.53;;;;;;;;;;6125801;23;20344;-75
2021/09/01 11:05:36;;;;;;;5.43;2.30;;;;;;;;;;6126250;23;20001;-71
2021/09/01 11:08:01;;;;;;;5.30;2.70;;;;;;;;;;6125992;23;20546;-73
2021/09/01 11:10:28;;;;;;;7.35;2.25;;;;;;;;;;6125943;23;20387;-73
2021/09/01 11:12:58;;;;;;;5.32;2.40;;;;;;;;;;6123470;23;20005;-75
2021/09/01 11:15:25;;;;;;;10.48;2.47;;;;;;;;;;6124742;23;20431;-75
2021/09/01 11:17:50;;;;;;;5.10;2.72;;;;;;;;;;6127199;23;20002;-75
2021/09/01 11:20:16;;;;;;;4.80;2.53;;;;;;;;;;6099338;23;19998;-76
2021/09/01 11:22:41;;;;;;;6.97;2.42;;;;;;;;;;6126415;23;20375;-74
2021/09/01 11:25:12;;;;;;;4.43;2.85;;;;;;;;;;6125585;23;20025;-73
2021/09/01 11:27:57;;;;;;;4.35;2.78;;;;;;;;;;6099684;23;20101;-74
2021/09/01 11:30:23;;;;;;;4.15;2.45;;;;;;;;;;6125686;23;20006;-71
2021/09/01 11:32:52;;;;;;;11.52;3.05;;;;;;;;;;6125635;23;20010;-74
2021/09/01 11:35:21;;;;;;;4.65;2.70;;;;;;;;;;6125012;23;20025;-74
2021/09/01 11:37:59;;;;;;;9.32;2.88;;;;;;;;;;6126417;23;19994;-74
2021/09/01 11:40:32;;;;;;;7.25;3.47;;;;;;;;;;6126211;23;20006;-74
2021/09/01 11:42:58;;;;;;;5.25;2.92;;;;;;;;;;6125462;23;20009;-73
2021/09/01 11:45:23;;;;;;;6.18;2.97;;;;;;;;;;6125421;23;20002;-74
2021/09/01 11:47:50;;;;;;;5.07;2.60;;;;;;;;;;6126198;23;20009;-73
2021/09/01 11:50:16;;;;;;;7.65;3.03;;;;;;;;;;6125945;23;20385;-71
2021/09/01 11:52:42;;;;;;;5.90;2.83;;;;;;;;;;6123233;23;20033;-73
2021/09/01 11:55:07;;;;;;;7.80;2.65;;;;;;;;;;6135210;23;19998;-77
2021/09/01 11:57:33;;;;;;;5.68;2.50;;;;;;;;;;6141648;23;20000;-78
2021/09/01 12:00:06;;;;;;;7.78;3.00;;;;;;;;;;6131747;23;20066;-74
2021/09/01 12:02:32;;;;;;;8.43;2.58;;;;;;;;;;6102654;23;20021;-74
2021/09/01 12:04:58;;;;;;;5.85;2.50;;;;;;;;;;6126369;23;19998;-75
2021/09/01 12:07:24;;;;;;;5.82;2.50;;;;;;;;;;6125168;23;20036;-74
2021/09/01 12:09:57;;;;;;;8.73;2.78;;;;;;;;;;6126367;23;20024;-75
2021/09/01 12:12:30;;;;;;;9.85;3.20;;;;;;;;;;6100351;23;20339;-74
2021/09/01 12:15:04;;;;;;;4.90;2.78;;;;;;;;;;6126337;23;20022;-77
2021/09/01 12:17:30;;;;;;;3.83;2.40;;;;;;;;;;6100266;23;20059;-72
2021/09/01 12:19:56;;;;;;;7.03;2.40;;;;;;;;;;6125942;23;20045;-75
2021/09/01 12:22:36;;;;;;;6.35;2.35;;;;;;;;;;6126009;23;20002;-76
2021/09/01 12:25:04;;;;;;;4.80;2.70;;;;;;;;;;6102456;23;20002;-75
2021/09/01 12:27:30;;;;;;;6.97;2.35;;;;;;;;;;6129362;23;20002;-74
2021/09/01 12:29:56;;;;;;;5.68;2.67;;;;;;;;;;6125775;23;20009;-74
2021/09/01 12:32:22;;;;;;;4.45;2.53;;;;;;;;;;6125900;23;20401;-74
2021/09/01 12:34:52;;;;;;;4.22;2.40;;;;;;;;;;6126218;23;19994;-75
2021/09/01 12:37:21;;;;;;;8.52;2.20;;;;;;;;;;6125781;23;19998;-76
2021/09/01 12:39:51;;;;;;;2.75;2.17;;;;;;;;;;6125761;23;20431;-72
2021/09/01 12:42:24;;;;;;;4.00;2.58;;;;;;;;;;6101052;23;19998;-78
2021/09/01 12:44:51;;;;;;;9.25;3.20;;;;;;;;;;6099591;23;20009;-76
2021/09/01 12:47:17;;;;;;;8.05;2.47;;;;;;;;;;6127846;23;20002;-78
2021/09/01 12:49:43;;;;;;;4.30;2.22;;;;;;;;;;6127525;23;20028;-77
2021/09/01 12:52:09;;;;;;;3.05;2.13;;;;;;;;;;6103582;23;20005;-76
2021/09/01 12:54:35;;;;;;;3.55;1.83;;;;;;;;;;6127659;23;20006;-77
2021/09/01 12:57:00;;;;;;;6.00;2.50;;;;;;;;;;6125421;23;20086;-76
2021/09/01 12:59:25;;;;;;;4.70;2.70;;;;;;;;;;6100427;23;19998;-77
2021/09/01 13:01:51;;;;;;;4.55;2.42;;;;;;;;;;6125687;23;20069;-75
2021/09/01 13:04:16;;;;;;;3.53;2.35;;;;;;;;;;6125984;23;20022;-72
2021/09/01 13:06:42;;;;;;;3.95;2.33;;;;;;;;;;6125084;23;20001;-75
2021/09/01 13:09:08;;;;;;;4.10;2.40;;;;;;;;;;6128290;23;20062;-77
2021/09/01 13:11:33;;;;;;;4.53;2.00;;;;;;;;;;6128458;23;20101;-75
2021/09/01 13:14:00;;;;;;;2.97;2.00;;;;;;;;;;6100159;23;20026;-75
2021/09/01 13:16:25;;;;;;;6.22;1.95;;;;;;;;;;6125243;23;20005;-76
2021/09/01 13:18:51;;;;;;;4.13;1.95;;;;;;;;;;6126178;23;20304;-76
2021/09/01 13:21:16;;;;;;;3.30;2.00;;;;;;;;;;6125719;23;19998;-76
2021/09/01 13:23:41;;;;;;;2.17;1.60;;;;;;;;;;6127129;23;19998;-78
2021/09/01 13:26:07;;;;;;;2.90;1.63;;;;;;;;;;6126929;23;20379;-74
2021/09/01 13:28:32;;;;;;;3.67;1.85;;;;;;;;;;6126826;23;20316;-75
2021/09/01 13:30:57;;;;;;;2.13;1.80;;;;;;;;;;6124838;23;19998;-74
2021/09/01 13:33:23;;;;;;;3.47;1.83;;;;;;;;;;6124147;23;19998;-72
2021/09/01 13:35:49;;;;;;;2.78;1.95;;;;;;;;;;6125054;23;20462;-77
2021/09/01 13:38:14;;;;;;;5.00;2.40;;;;;;;;;;6100364;23;20081;-77
2021/09/01 13:40:39;;;;;;;3.67;1.80;;;;;;;;;;6099886;23;20009;-77
2021/09/01 13:43:05;;;;;;;2.45;1.60;;;;;;;;;;6124108;23;20092;-75
2021/09/01 13:45:30;;;;;;;2.97;2.10;;;;;;;;;;6124157;23;20065;-74
2021/09/01 13:47:56;;;;;;;7.32;1.95;;;;;;;;;;6125733;23;20009;-77
2021/09/01 13:50:21;;;;;;;3.70;1.73;;;;;;;;;;6125578;23;20031;-76
2021/09/01 13:52:47;;;;;;;6.13;1.90;;;;;;;;;;6125701;23;20060;-76
2021/09/01 13:55:13;;;;;;;3.75;1.80;;;;;;;;;;6124750;23;20085;-74
2021/09/01 13:57:40;;;;;;;2.10;1.50;;;;;;;;;;6125543;23;20006;-74
2021/09/01 14:00:07;;;;;;;3.05;2.00;;;;;;;;;;6099692;23;20364;-76
2021/09/01 14:02:33;;;;;;;2.72;1.60;;;;;;;;;;6099735;23;20343;-75
2021/09/01 14:04:59;;;;;;;3.85;2.03;;;;;;;;;;6124399;23;20097;-77
2021/09/01 14:07:25;;;;;;;8.10;2.13;;;;;;;;;;6126485;23;20490;-76
2021/09/01 14:09:50;;;;;;;12.43;2.20;;;;;;;;;;6126738;23;20024;-76
2021/09/01 14:12:15;;;;;;;3.97;2.08;;;;;;;;;;6098940;23;20421;-76
2021/09/01 14:14:41;;;;;;;4.88;1.73;;;;;;;;;;6126045;23;20001;-77
2021/09/01 14:17:06;;;;;;;2.88;1.60;;;;;;;;;;6125386;23;20002;-73
2021/09/01 14:19:32;;;;;;;3.30;1.55;;;;;;;;;;6124013;23;19994;-74
2021/09/01 14:21:57;;;;;;;3.22;1.63;;;;;;;;;;6124203;23;20021;-72
2021/09/01 14:24:23;;;;;;;5.88;1.80;;;;;;;;;;6124048;23;20065;-69
2021/09/01 14:26:49;;;;;;;3.67;1.63;;;;;;;;;;6124501;23;20003;-77
2021/09/01 14:29:14;;;;;;;2.22;1.73;;;;;;;;;;6123492;23;20027;-73
2021/09/01 14:31:40;;;;;;;3.15;1.73;;;;;;;;;;6122945;23;20002;-74
2021/09/01 14:34:06;;;;;;;4.18;1.80;;;;;;;;;;6123278;23;20006;-72
2021/09/01 14:36:31;;;;;;;2.72;1.88;;;;;;;;;;6099215;23;20013;-72